Terminal Aerodrome Forecast
Issued by NWS Twin Cities, MN

Home | Current Version | Previous Version | Text Only | Print | Product List | Glossary Off
Versions: 1 2 3 4 5 6 7 8 9 10 11 12 13 14

617
FTUS43 KMPX 240903 AAA
TAFSTC
TAF AMD
KSTC 240903Z 2409/2506 01007KT P6SM SCT030 OVC060
     FM241800 04006KT P6SM SCT025 BKN050
     FM250000 08004KT P6SM SCT050=

USA.gov is the U.S. government's official web portal to all federal, state and local government web resources and services.